»·PEaware :: N227LG KSNA-KAVX

N227LG :: KSNA-KAVX

FLIGHT INFORMATION

Flight Status: Arrived
Operator: Privately registered:
United States
More flights under this callsign
Pilot: Brian B. (27125)
Aircraft: Unknown
(LEG2)
More flights by this aircraft type
Origin: KSNA John Wayne-Orange Co
United States
Destination: KAVX Catalina
United States
More flights between these airports :: More routes between these airports
Route: SLI V21 SXC
File this flight plan on PilotEdge
Remarks: I-7 Full Approach Non-precision, Non-towered
Altitude:
(Current/Filed)
4,000ft
Speed:
(Current/Filed)
150kts
Departed: 10-Jan-20 10:29 AM
Arrived: 10-Jan-20 10:56 AM
Distance/Time
Traveled:
32nm/0:26
Distance/Time
To Go:
Arrived

Flight Plot

Page will automatically refresh every two minutes.


Map Options




Map Legend


Flown Route
Filed Route
Departure Airport
Arrival Airport
Navaid (VOR, NDB)
Fix

Horizontal Profiles

Position Reports

Time Latitude Longitude Heading Altitude Ground
Speed
10-Jan-20 10:07 33.672066 -117.873496 101 60ft 0kts
10-Jan-20 10:08 33.672069 -117.873487 127 60ft 0kts
10-Jan-20 10:09 33.672069 -117.873476 156 60ft 0kts
10-Jan-20 10:10 33.672064 -117.873467 185 60ft 0kts
10-Jan-20 10:11 33.672056 -117.873462 214 60ft 0kts
10-Jan-20 10:12 33.672011 -117.873501 221 60ft 0kts
10-Jan-20 10:13 33.672007 -117.873511 202 60ft 0kts
10-Jan-20 10:14 33.672002 -117.873514 191 60ft 0kts
10-Jan-20 10:15 33.671993 -117.873509 221 60ft 0kts
10-Jan-20 10:16 33.671985 -117.873510 250 60ft 0kts
10-Jan-20 10:17 33.671978 -117.873516 278 60ft 0kts
10-Jan-20 10:18 33.671974 -117.873525 306 60ft 0kts
10-Jan-20 10:19 33.671974 -117.873534 332 60ft 0kts
10-Jan-20 10:20 33.671977 -117.873542 357 60ft 0kts
10-Jan-20 10:21 33.671982 -117.873547 21 60ft 0kts
10-Jan-20 10:22 33.672726 -117.872197 27 60ft 20kts
10-Jan-20 10:23 33.676837 -117.869580 28 60ft 35kts
10-Jan-20 10:24 33.681217 -117.866811 64 60ft 12kts
10-Jan-20 10:25 33.681184 -117.866297 68 60ft 0kts
10-Jan-20 10:26 33.681186 -117.866299 75 60ft 0kts
10-Jan-20 10:27 33.681186 -117.866294 80 60ft 0kts
10-Jan-20 10:28 33.677237 -117.867873 207 60ft 80kts
10-Jan-20 10:29 33.661654 -117.881168 221 506ft 110kts
10-Jan-20 10:30 33.643684 -117.900088 221 1284ft 96kts
10-Jan-20 10:31 33.624285 -117.919671 222 2881ft 94kts
10-Jan-20 10:32 33.598722 -117.944595 221 4161ft 140kts
10-Jan-20 10:33 33.566870 -117.975540 221 4141ft 109kts
10-Jan-20 10:34 33.536221 -118.005359 221 4288ft 141kts
10-Jan-20 10:35 33.498163 -118.043142 221 4277ft 133kts
10-Jan-20 10:36 33.462475 -118.078019 221 4279ft 128kts
10-Jan-20 10:37 33.432581 -118.109336 240 4277ft 123kts
10-Jan-20 10:38 33.412463 -118.146893 241 4276ft 122kts
10-Jan-20 10:39 33.391369 -118.187154 241 3976ft 129kts
10-Jan-20 10:40 33.371945 -118.225775 256 3970ft 117kts
10-Jan-20 10:41 33.372940 -118.271930 271 3974ft 114kts
10-Jan-20 10:42 33.373648 -118.314557 270 3973ft 113kts
10-Jan-20 10:43 33.374186 -118.355511 270 3972ft 108kts
10-Jan-20 10:44 33.374690 -118.394296 270 3973ft 105kts
10-Jan-20 10:45 33.396010 -118.416476 2 3974ft 117kts
10-Jan-20 10:46 33.430975 -118.410662 3 3973ft 117kts
10-Jan-20 10:47 33.465796 -118.404908 2 3975ft 117kts
10-Jan-20 10:48 33.498134 -118.426147 318 3460ft 130kts
10-Jan-20 10:49 33.528380 -118.455945 318 3368ft 115kts
10-Jan-20 10:50 33.531870 -118.446241 156 2829ft 130kts
10-Jan-20 10:51 33.496901 -118.428048 159 2286ft 110kts
10-Jan-20 10:52 33.466807 -118.412037 159 2278ft 109kts
10-Jan-20 10:53 33.435419 -118.397673 149 2272ft 95kts
10-Jan-20 10:54 33.409811 -118.387793 277 2193ft 108kts
10-Jan-20 10:55 33.404601 -118.416437 237 1552ft 19kts
10-Jan-20 10:56 33.403213 -118.415646 277 1550ft 0kts
10-Jan-20 10:57 33.403244 -118.415638 257 1549ft 0kts
10-Jan-20 10:58 33.403257 -118.415644 207 1550ft 0kts
10-Jan-20 10:59 33.403259 -118.415653 170 1550ft 0kts
10-Jan-20 11:00 33.403254 -118.415660 135 1550ft 0kts
10-Jan-20 11:01 33.403255 -118.415658 113 1550ft 0kts
10-Jan-20 11:02 33.403277 -118.415641 136 1549ft 0kts

Navigation Log

Ident Type
Flight plan parsing failed, navigation log unavailable